Notice: Undefined index: language in D:\xampp\htdocs\vam\index.php on line 25
Open Air Virtual

 METAR AND TAF INFORMATION
METAR FOR ESNS
ADDS - METARS form results

(2218 UTC 14 December 2019)
Data provider http://aviationweather.gov/metar/data/
 
METAR text: ESNS 142150Z AUTO 10007KT 2000 -SN OVC004/// 00/00 Q0996
Conditions at: ESNS (SKELLEFTEA AIRPO, SE) observed 2150 UTC 14 December 2019
Temperature: 0.0°C (32°F)
Dewpoint: 0.0°C (32°F) [RH = 100%]
Pressure (altimeter): 29.41 inches Hg (996.0 mb)
Winds: from the E (100 degrees) at 8 MPH (7 knots; 3.6 m/s)
Visibility: 1.24 miles (2.00 km)
Ceiling: 400 feet AGL
Clouds: overcast cloud deck at 400 feet AGL
Weather: -SN  (light snow)

METAR text: ESNS 142120Z AUTO 11007KT 4100 -RASN OVC004/// 01/00 Q0996
Conditions at: ESNS (SKELLEFTEA AIRPO, SE) observed 2120 UTC 14 December 2019
Temperature: 1.0°C (34°F)
Dewpoint: 0.0°C (32°F) [RH = 93%]
Pressure (altimeter): 29.41 inches Hg (996.0 mb)
Winds: from the ESE (110 degrees) at 8 MPH (7 knots; 3.6 m/s)
Visibility: 2.55 miles (4.10 km)
Ceiling: 400 feet AGL
Clouds: overcast cloud deck at 400 feet AGL
Weather: -RA -SN  (light rain, light snow)

Forecast for: ESNS (SKELLEFTEA AIRPO, SE)
Text: TAF ESNS 141730Z 1418/1420 11008KT 9999 -RASN OVC008
Forecast period: 1800 to 2000 UTC 14 December 2019
Forecast type: FROM: standard forecast or significant change
Winds: from the ESE (110 degrees) at 9 MPH (8 knots; 4.1 m/s)
Visibility: 6 or more miles 10+ km)
Ceiling: 800 feet AGL
Clouds: overcast cloud deck at 800 feet AGL
Weather: -RA -SN  (light rain, light snow)
Text: TEMPO 1418/1420 2500 SN BKN004
Forecast period: 1800 to 2000 UTC 14 December 2019
Forecast type: TEMPORARY: The following changes expected for less than half the time period
Visibility: 1.55 miles (2.49 km)
Ceiling: 400 feet AGL
Clouds: broken clouds at 400 feet AGL
Weather: SN  (moderate snow)

 AIRPORT MAP

 RUNWAY INFORMATION
Runway 10 Runway length 6890 ft Runway width 148 ft
Runway elevation 157 ft Runway displaced threshold 0 ft Runway heading 106
Runway 28 Runway length 6890 ft Runway width 148 ft
Runway elevation 125 ft Runway displaced threshold 0 ft Runway heading 286

 AIRPORT FREQUENCIES
Type TWR Name TWR Frequency 122.05 MHZ

 AIRPORT NEAR NAVIGATION AIDS
Type VOR-DME Name Skelleftea Frequency 113400 KHZ



Powered by Virtual Airlines Manager [v2.6.2]